createdAt,value
2023-04-21T00:01:55.407Z,16.63
2023-04-21T00:04:27.994Z,15.98
2023-04-21T00:06:56.848Z,16.70
2023-04-21T00:09:28.377Z,17.73
2023-04-21T00:11:57.512Z,17.27
2023-04-21T00:14:27.091Z,18.10
2023-04-21T00:16:55.897Z,17.70
2023-04-21T00:19:26.638Z,18.60
2023-04-21T00:21:59.020Z,18.75
2023-04-21T00:24:28.270Z,19.17
2023-04-21T00:26:59.929Z,19.80
2023-04-21T00:29:29.952Z,20.30
2023-04-21T00:31:59.833Z,20.33
2023-04-21T00:34:29.992Z,20.42
2023-04-21T00:36:59.226Z,22.30
2023-04-21T00:39:28.468Z,21.33
2023-04-21T00:41:57.402Z,21.60
2023-04-21T00:44:26.163Z,22.95
2023-04-21T00:46:54.721Z,22.77
2023-04-21T00:49:25.671Z,22.27
2023-04-21T00:51:58.256Z,24.95
2023-04-21T00:54:30.974Z,23.50
2023-04-21T00:57:01.104Z,24.00
2023-04-21T00:59:32.933Z,25.08
2023-04-21T01:02:04.829Z,26.52
2023-04-21T01:04:39.801Z,26.10
2023-04-21T01:07:10.496Z,25.33
2023-04-21T01:09:40.009Z,28.40
2023-04-21T01:12:10.579Z,28.42
2023-04-21T01:14:41.605Z,27.70
2023-04-21T01:17:12.624Z,29.35
2023-04-21T01:19:44.371Z,29.20
2023-04-21T01:22:16.879Z,29.95
2023-04-21T01:24:49.482Z,28.92
2023-04-21T01:27:21.406Z,29.88
2023-04-21T01:29:54.265Z,30.33
2023-04-21T01:32:27.324Z,30.77
2023-04-21T01:34:58.302Z,30.65
2023-04-21T01:37:32.643Z,30.80
2023-04-21T01:40:06.959Z,32.55
2023-04-21T01:42:41.140Z,31.33
2023-04-21T01:47:41.904Z,30.75
2023-04-21T01:50:12.388Z,31.00
2023-04-21T01:52:45.226Z,31.73
2023-04-21T01:55:16.322Z,33.50
2023-04-21T01:57:45.030Z,32.88
2023-04-21T02:00:18.224Z,32.08
2023-04-21T02:02:47.947Z,33.95
2023-04-21T02:05:19.119Z,33.92
2023-04-21T02:07:52.413Z,33.05
2023-04-21T02:10:24.140Z,35.90
2023-04-21T02:12:54.387Z,34.97
2023-04-21T02:15:27.093Z,33.60
2023-04-21T02:17:59.175Z,33.60
2023-04-21T02:20:29.871Z,34.50
2023-04-21T02:23:03.954Z,34.05
2023-04-21T02:25:33.353Z,33.88
2023-04-21T02:28:04.649Z,33.08
2023-04-21T02:30:36.397Z,35.28
2023-04-21T02:33:07.732Z,35.70
2023-04-21T02:35:40.385Z,35.17
2023-04-21T02:38:11.331Z,36.53
2023-04-21T02:40:42.736Z,35.15
2023-04-21T02:43:13.303Z,35.28
2023-04-21T02:45:57.186Z,35.28
2023-04-21T02:48:30.534Z,37.00
2023-04-21T02:51:01.403Z,37.03
2023-04-21T02:53:35.506Z,35.78
2023-04-21T03:01:38.545Z,34.92
2023-04-21T03:04:07.809Z,37.22
2023-04-21T03:06:38.886Z,37.28
2023-04-21T03:09:09.641Z,37.22
2023-04-21T03:11:40.103Z,37.22
2023-04-21T03:14:10.186Z,36.40
2023-04-21T03:16:38.981Z,37.83
2023-04-21T03:19:07.640Z,36.05
2023-04-21T03:21:41.196Z,35.78
2023-04-21T03:24:15.411Z,35.78
2023-04-21T03:26:46.587Z,35.20
2023-04-21T03:29:18.256Z,35.17
2023-04-21T03:31:48.058Z,34.25
2023-04-21T03:34:20.108Z,34.45
2023-04-21T03:36:49.645Z,35.97
2023-04-21T03:39:21.078Z,34.17
2023-04-21T03:41:51.605Z,33.38
2023-04-21T03:44:22.550Z,33.33
2023-04-21T03:46:55.329Z,32.88
2023-04-21T03:49:26.270Z,32.17
2023-04-21T03:52:03.517Z,33.75
2023-04-21T03:54:37.621Z,32.78
2023-04-21T03:57:07.113Z,32.45
2023-04-21T03:59:36.588Z,33.33
2023-04-21T04:02:06.640Z,33.40
2023-04-21T04:04:39.273Z,32.17
2023-04-21T04:07:10.765Z,32.65
2023-04-21T04:09:43.727Z,33.92
2023-04-21T04:12:12.374Z,32.72
2023-04-21T04:14:41.454Z,33.65
2023-04-21T04:17:13.109Z,35.17
2023-04-21T04:19:43.022Z,33.83
2023-04-21T04:22:13.423Z,33.92
2023-04-21T04:24:45.150Z,33.42
2023-04-21T04:27:17.871Z,33.63
2023-04-21T04:29:49.717Z,33.88
2023-04-21T04:32:39.489Z,34.78
2023-04-21T04:35:13.418Z,34.22
2023-04-21T04:37:48.710Z,32.25
2023-04-21T04:40:21.534Z,34.17
2023-04-21T04:42:53.170Z,32.88
2023-04-21T04:45:23.907Z,32.38
2023-04-21T04:47:53.186Z,35.17
2023-04-21T04:50:24.755Z,33.38
2023-04-21T04:52:54.786Z,34.75
2023-04-21T04:55:27.858Z,33.67
2023-04-21T04:57:58.698Z,34.55
2023-04-21T05:00:42.915Z,32.50
2023-04-21T05:03:12.345Z,33.50
2023-04-21T05:05:42.747Z,35.05
2023-04-21T05:08:11.777Z,35.97
2023-04-21T05:10:46.908Z,34.10
2023-04-21T05:15:48.428Z,32.65
2023-04-21T05:18:17.811Z,32.97
2023-04-21T05:20:47.545Z,34.85
2023-04-21T05:23:16.201Z,32.72
2023-04-21T05:25:49.454Z,33.75
2023-04-21T05:28:26.272Z,35.42
2023-04-21T05:30:55.649Z,35.65
2023-04-21T05:33:27.177Z,35.50
2023-04-21T05:35:58.213Z,36.53
2023-04-21T05:38:28.008Z,39.15
2023-04-21T05:41:02.798Z,37.50
2023-04-21T05:43:35.796Z,38.83
2023-04-21T05:46:11.671Z,37.47
2023-04-21T05:48:42.240Z,37.92
2023-04-21T05:51:12.828Z,38.88
2023-04-21T05:53:48.476Z,41.53
2023-04-21T05:56:18.908Z,41.17
2023-04-21T05:58:48.684Z,43.22
2023-04-21T06:01:19.217Z,43.13
2023-04-21T06:03:50.695Z,44.42
2023-04-21T06:06:22.317Z,44.25
2023-04-21T06:08:53.333Z,44.72
2023-04-21T06:11:26.921Z,45.35
2023-04-21T06:14:05.386Z,43.85
2023-04-21T06:19:24.202Z,44.13
2023-04-21T06:22:07.435Z,42.88
2023-04-21T06:24:37.219Z,41.75
2023-04-21T06:27:14.391Z,40.50
2023-04-21T06:29:47.982Z,41.70
2023-04-21T06:32:20.335Z,40.25
2023-04-21T06:34:49.766Z,40.35
2023-04-21T06:37:19.486Z,41.38
2023-04-21T06:42:37.597Z,39.47
2023-04-21T06:45:24.692Z,39.05
2023-04-21T06:47:58.184Z,38.63
2023-04-21T06:50:29.858Z,39.38
2023-04-21T06:52:58.792Z,40.00
2023-04-21T06:55:29.215Z,38.08
2023-04-21T06:58:00.480Z,37.80
2023-04-21T07:00:30.846Z,38.13
2023-04-21T07:02:59.763Z,38.85
2023-04-21T07:05:36.079Z,38.08
2023-04-21T07:08:35.003Z,37.50
2023-04-21T07:11:10.528Z,36.53
2023-04-21T07:13:44.640Z,39.33
2023-04-21T07:16:24.747Z,38.97
2023-04-21T07:18:56.956Z,37.28
2023-04-21T07:21:41.572Z,36.38
2023-04-21T07:30:31.657Z,34.28
2023-04-21T07:33:02.743Z,35.28
2023-04-21T07:35:31.755Z,32.78
2023-04-21T07:38:01.380Z,33.63
2023-04-21T07:40:35.491Z,34.50
2023-04-21T07:43:05.731Z,33.85
2023-04-21T07:45:37.224Z,34.97
2023-04-21T07:48:11.118Z,33.78
2023-04-21T07:50:43.324Z,34.95
2023-04-21T07:53:14.472Z,32.95
2023-04-21T07:55:50.760Z,32.00
2023-04-21T07:58:24.063Z,29.70
2023-04-21T08:00:59.211Z,28.08
2023-04-21T08:03:52.775Z,27.40
2023-04-21T08:06:25.132Z,26.70
2023-04-21T08:08:56.820Z,27.25
2023-04-21T08:11:26.251Z,27.92
2023-04-21T08:13:55.783Z,25.35
2023-04-21T08:16:26.925Z,24.55
2023-04-21T08:18:57.533Z,25.50
2023-04-21T08:21:28.903Z,25.95
2023-04-21T08:24:00.558Z,25.30
2023-04-21T08:26:30.847Z,24.13
2023-04-21T08:29:00.709Z,25.42
2023-04-21T08:31:35.691Z,24.45
2023-04-21T08:34:06.664Z,25.52
2023-04-21T08:36:38.813Z,24.48
2023-04-21T08:39:07.540Z,24.90
2023-04-21T08:41:36.497Z,24.98
2023-04-21T08:44:06.399Z,24.67
2023-04-21T08:46:41.895Z,25.13
2023-04-21T08:49:13.615Z,24.58
2023-04-21T08:51:45.982Z,25.35
2023-04-21T08:54:30.224Z,27.30
2023-04-21T08:57:11.724Z,25.05
2023-04-21T08:59:45.730Z,25.33
2023-04-21T09:02:19.489Z,26.10
2023-04-21T09:04:52.401Z,26.40
2023-04-21T09:07:37.230Z,25.85
2023-04-21T09:10:11.219Z,24.80
2023-04-21T09:12:56.471Z,24.55
2023-04-21T09:15:29.943Z,24.50
2023-04-21T09:18:04.586Z,25.67
2023-04-21T09:20:34.285Z,25.40
2023-04-21T09:23:12.300Z,23.55
2023-04-21T09:25:45.188Z,22.95
2023-04-21T09:28:16.576Z,24.35
2023-04-21T09:30:47.035Z,24.75
2023-04-21T09:33:29.421Z,23.65
2023-04-21T09:36:04.719Z,23.37
2023-04-21T09:38:35.989Z,23.10
2023-04-21T09:41:05.854Z,23.98
2023-04-21T09:43:38.663Z,23.85
2023-04-21T09:46:12.297Z,22.38
2023-04-21T09:48:46.201Z,21.90
2023-04-21T09:53:55.724Z,22.03
2023-04-21T09:56:27.778Z,22.88
2023-04-21T09:59:03.319Z,20.95
2023-04-21T10:01:36.619Z,21.30
2023-04-21T10:04:07.820Z,20.52
2023-04-21T10:06:42.154Z,20.40
2023-04-21T10:09:19.121Z,19.92
2023-04-21T10:11:48.460Z,20.83
2023-04-21T10:14:23.759Z,20.70
2023-04-21T10:17:25.247Z,21.15
2023-04-21T10:20:00.300Z,20.95
2023-04-21T10:22:30.531Z,21.13
2023-04-21T10:25:03.784Z,20.75
2023-04-21T10:27:37.825Z,20.95
2023-04-21T10:30:26.943Z,21.60
2023-04-21T10:33:06.096Z,21.05
2023-04-21T10:36:07.597Z,22.83
2023-04-21T10:38:43.641Z,22.23
2023-04-21T10:41:29.379Z,22.15
2023-04-21T10:44:02.574Z,23.15
2023-04-21T10:46:42.864Z,23.08
2023-04-21T10:49:16.894Z,22.75
2023-04-21T10:52:12.963Z,22.27
2023-04-21T10:54:46.262Z,22.23
2023-04-21T10:57:18.591Z,21.67
2023-04-21T10:59:50.249Z,21.27
2023-04-21T11:02:24.531Z,21.60
2023-04-21T11:04:57.000Z,22.98
2023-04-21T11:07:31.372Z,22.20
2023-04-21T11:10:03.046Z,21.95
2023-04-21T11:12:43.920Z,21.23
2023-04-21T11:15:16.392Z,22.27
2023-04-21T11:17:48.880Z,21.38
2023-04-21T11:20:18.063Z,21.90
2023-04-21T11:22:53.585Z,21.02
2023-04-21T11:25:23.916Z,21.65
2023-04-21T11:28:00.270Z,22.02
2023-04-21T11:30:40.495Z,21.58
2023-04-21T11:33:09.680Z,20.40
2023-04-21T11:35:47.823Z,20.77
2023-04-21T11:38:19.191Z,20.73
2023-04-21T11:40:50.098Z,20.65
2023-04-21T11:43:24.270Z,21.38
2023-04-21T11:45:54.565Z,21.20
2023-04-21T11:48:36.614Z,19.73
2023-04-21T11:51:06.054Z,20.58
2023-04-21T11:53:41.406Z,20.33
2023-04-21T11:56:13.290Z,19.85
2023-04-21T11:58:49.144Z,20.65
2023-04-21T12:01:27.838Z,20.45
2023-04-21T12:03:58.055Z,20.33
2023-04-21T12:06:29.301Z,21.13
2023-04-21T12:09:05.153Z,21.00
2023-04-21T12:11:36.325Z,21.55
2023-04-21T12:14:06.981Z,20.48
2023-04-21T12:16:40.433Z,20.23
2023-04-21T12:19:09.441Z,20.25
2023-04-21T12:21:40.452Z,19.85
2023-04-21T12:24:13.968Z,20.95
2023-04-21T12:26:53.395Z,19.80
2023-04-21T12:29:24.712Z,20.55
2023-04-21T12:31:55.366Z,20.67
2023-04-21T12:34:24.839Z,19.35
2023-04-21T12:36:58.884Z,19.50
2023-04-21T12:39:29.990Z,19.13
2023-04-21T12:42:02.589Z,20.35
2023-04-21T12:44:31.993Z,19.95
2023-04-21T12:47:08.308Z,20.23
2023-04-21T12:49:39.534Z,19.17
2023-04-21T12:52:10.047Z,19.73
2023-04-21T12:54:45.405Z,19.83
2023-04-21T12:57:25.769Z,19.58
2023-04-21T12:59:56.254Z,19.52
2023-04-21T13:02:26.638Z,18.88
2023-04-21T13:04:59.796Z,18.83
2023-04-21T13:07:42.598Z,19.55
2023-04-21T13:10:14.160Z,19.10
2023-04-21T13:12:44.473Z,19.05
2023-04-21T13:15:16.847Z,18.85
2023-04-21T13:17:46.759Z,19.20
2023-04-21T13:20:19.450Z,18.70
2023-04-21T13:22:52.619Z,19.15
2023-04-21T13:25:37.008Z,18.83
2023-04-21T13:28:07.632Z,19.20
2023-04-21T13:30:49.341Z,19.17
2023-04-21T13:33:21.453Z,18.40
2023-04-21T13:35:50.897Z,17.92
2023-04-21T13:38:28.509Z,19.02
2023-04-21T13:41:00.878Z,19.30
2023-04-21T13:43:32.071Z,18.50
2023-04-21T13:46:00.639Z,18.85
2023-04-21T13:48:30.045Z,18.15
2023-04-21T13:51:00.161Z,17.98
2023-04-21T13:53:34.442Z,17.45
2023-04-21T13:56:05.426Z,17.92
2023-04-21T13:58:36.679Z,16.92
2023-04-21T14:01:10.775Z,17.13
2023-04-21T14:03:50.461Z,16.42
2023-04-21T14:06:21.271Z,15.70
2023-04-21T14:08:52.650Z,16.52
2023-04-21T14:11:28.678Z,16.00
2023-04-21T14:14:09.957Z,15.35
2023-04-21T14:16:46.935Z,15.85
2023-04-21T14:19:17.602Z,15.73
2023-04-21T14:21:50.108Z,16.83
2023-04-21T14:24:21.832Z,14.88
2023-04-21T14:26:53.214Z,15.55
2023-04-21T14:29:24.626Z,16.42
2023-04-21T14:31:59.811Z,17.23
2023-04-21T14:34:29.129Z,15.25
2023-04-21T14:37:01.235Z,15.25
2023-04-21T14:39:33.032Z,15.38
2023-04-21T14:42:06.661Z,15.23
2023-04-21T14:44:35.859Z,15.40
2023-04-21T14:47:09.755Z,14.82
2023-04-21T14:49:40.972Z,15.50
2023-04-21T14:52:15.772Z,15.65
2023-04-21T14:57:19.597Z,14.35
2023-04-21T14:59:52.957Z,16.15
2023-04-21T15:02:29.171Z,14.90
2023-04-21T15:04:59.922Z,15.90
2023-04-21T15:07:33.276Z,15.05
2023-04-21T15:10:03.985Z,15.73
2023-04-21T15:12:37.769Z,15.27
2023-04-21T15:15:08.305Z,15.75
2023-04-21T15:17:40.706Z,16.33
2023-04-21T15:20:12.454Z,17.02
2023-04-21T15:22:43.867Z,16.05
2023-04-21T15:25:13.515Z,15.52
2023-04-21T15:27:43.644Z,17.60
2023-04-21T15:30:14.677Z,16.58
2023-04-21T15:33:01.174Z,17.02
2023-04-21T15:35:34.900Z,17.20
2023-04-21T15:38:06.256Z,18.93
2023-04-21T15:40:59.615Z,17.30
2023-04-21T15:43:30.950Z,23.92
2023-04-21T15:46:01.338Z,30.98
2023-04-21T15:48:34.729Z,21.75
2023-04-21T15:51:05.060Z,19.38
2023-04-21T15:53:35.823Z,18.95
2023-04-21T15:56:05.713Z,18.60
2023-04-21T15:58:44.773Z,18.60
2023-04-21T16:01:14.945Z,18.48
2023-04-21T16:03:44.218Z,18.60
2023-04-21T16:06:13.760Z,19.08
2023-04-21T16:08:45.206Z,18.17
2023-04-21T16:11:14.071Z,19.58
2023-04-21T16:13:46.819Z,20.33
2023-04-21T16:16:17.963Z,21.05
2023-04-21T16:18:48.199Z,18.52
2023-04-21T16:21:17.053Z,19.63
2023-04-21T16:23:47.985Z,20.20
2023-04-21T16:26:20.186Z,21.60
2023-04-21T16:28:56.231Z,19.77
2023-04-21T16:31:26.969Z,20.15
2023-04-21T16:33:59.830Z,20.83
2023-04-21T16:36:32.884Z,20.38
2023-04-21T16:39:06.882Z,20.05
2023-04-21T16:41:36.497Z,19.55
2023-04-21T16:44:11.512Z,19.30
2023-04-21T16:46:45.147Z,19.48
2023-04-21T16:49:20.133Z,18.55
2023-04-21T16:51:52.218Z,18.65
2023-04-21T16:54:22.666Z,18.52
2023-04-21T16:56:52.061Z,20.38
2023-04-21T16:59:24.042Z,20.88
2023-04-21T17:01:55.808Z,19.17
2023-04-21T17:04:30.130Z,20.17
2023-04-21T17:07:01.200Z,20.25
2023-04-21T17:09:31.746Z,20.05
2023-04-21T17:12:01.401Z,19.98
2023-04-21T17:14:33.011Z,19.33
2023-04-21T17:17:02.058Z,21.08
2023-04-21T17:19:31.026Z,20.13
2023-04-21T17:22:03.598Z,20.67
2023-04-21T17:24:51.547Z,20.75
2023-04-21T17:27:23.995Z,20.80
2023-04-21T17:29:54.405Z,21.92
2023-04-21T17:32:25.187Z,20.48
2023-04-21T17:34:55.062Z,19.35
2023-04-21T17:37:31.658Z,20.65
2023-04-21T17:40:03.319Z,20.73
2023-04-21T17:42:33.923Z,21.08
2023-04-21T17:45:07.856Z,21.23
2023-04-21T17:47:39.922Z,21.05
2023-04-21T17:50:14.227Z,21.38
2023-04-21T17:52:43.492Z,20.33
2023-04-21T17:55:16.600Z,20.58
2023-04-21T17:57:49.047Z,21.42
2023-04-21T18:00:24.199Z,22.58
2023-04-21T18:02:53.557Z,21.25
2023-04-21T18:05:23.432Z,23.20
2023-04-21T18:07:54.682Z,21.30
2023-04-21T18:10:43.411Z,22.83
2023-04-21T18:13:12.531Z,21.80
2023-04-21T18:15:44.349Z,23.45
2023-04-21T18:18:14.546Z,22.23
2023-04-21T18:20:46.076Z,23.38
2023-04-21T18:23:17.277Z,24.20
2023-04-21T18:25:46.328Z,24.02
2023-04-21T18:28:18.137Z,23.08
2023-04-21T18:30:50.695Z,23.38
2023-04-21T18:33:33.268Z,24.98
2023-04-21T18:36:32.906Z,26.73
2023-04-21T18:39:18.874Z,25.55
2023-04-21T18:41:57.284Z,30.60
2023-04-21T18:44:34.165Z,31.42
2023-04-21T18:50:26.484Z,24.58
2023-04-21T18:53:22.206Z,19.60
2023-04-21T18:56:27.793Z,20.30
2023-04-21T18:58:59.600Z,17.67
2023-04-21T19:01:38.825Z,16.48
2023-04-21T19:04:15.569Z,13.60
2023-04-21T19:07:04.857Z,10.48
2023-04-21T19:09:56.816Z,8.55
2023-04-21T19:12:46.714Z,7.95
2023-04-21T19:15:45.922Z,8.10
2023-04-21T19:18:31.273Z,8.93
2023-04-21T19:21:19.016Z,10.27
2023-04-21T19:23:59.280Z,11.40
2023-04-21T19:26:51.506Z,11.48
2023-04-21T19:29:38.220Z,10.82
2023-04-21T19:32:10.545Z,10.77
2023-04-21T19:34:50.442Z,12.27
2023-04-21T19:37:39.736Z,12.57
2023-04-21T19:40:19.449Z,12.30
2023-04-21T19:43:18.247Z,12.15
2023-04-21T19:45:58.910Z,16.67
2023-04-21T19:48:58.174Z,15.25
2023-04-21T19:51:49.500Z,14.60
2023-04-21T19:58:28.714Z,14.48
2023-04-21T20:01:17.197Z,13.57
2023-04-21T20:06:52.641Z,15.15
2023-04-21T20:09:29.163Z,16.73
2023-04-21T20:12:02.637Z,15.70
2023-04-21T20:14:54.500Z,16.13
2023-04-21T20:17:44.874Z,16.55
2023-04-21T20:20:27.848Z,16.60
2023-04-21T20:23:12.658Z,17.27
2023-04-21T20:25:59.351Z,18.13
2023-04-21T20:29:01.050Z,20.13
2023-04-21T20:31:51.168Z,17.33
2023-04-21T20:34:45.117Z,17.15
2023-04-21T20:37:25.329Z,11.35
2023-04-21T20:40:10.576Z,9.73
2023-04-21T20:45:36.919Z,7.18
2023-04-21T20:48:08.381Z,6.72
2023-04-21T20:50:37.960Z,8.15
2023-04-21T20:53:14.565Z,6.03
2023-04-21T20:55:44.484Z,5.68
2023-04-21T21:00:59.417Z,6.15
2023-04-21T21:03:32.230Z,6.13
2023-04-21T21:06:04.802Z,6.90
2023-04-21T21:08:36.256Z,5.65
2023-04-21T21:11:06.581Z,5.82
2023-04-21T21:13:47.114Z,5.28
2023-04-21T21:16:18.674Z,10.27
2023-04-21T21:18:52.276Z,7.22
2023-04-21T21:21:24.780Z,5.22
2023-04-21T21:23:55.302Z,9.65
2023-04-21T21:26:25.967Z,10.25
2023-04-21T21:28:56.971Z,6.50
2023-04-21T21:31:27.924Z,5.63
2023-04-21T21:34:00.247Z,3.92
2023-04-21T21:36:30.513Z,4.20
2023-04-21T21:39:06.896Z,4.70
2023-04-21T21:41:38.864Z,5.50
2023-04-21T21:44:10.985Z,6.20
2023-04-21T21:46:45.383Z,6.57
2023-04-21T21:49:18.431Z,7.55
2023-04-21T21:51:48.606Z,7.30
2023-04-21T21:54:18.535Z,8.20
2023-04-21T21:56:48.356Z,7.85
2023-04-21T21:59:18.159Z,8.68
2023-04-21T22:01:57.113Z,8.60
2023-04-21T22:04:27.355Z,8.93
2023-04-21T22:06:57.048Z,8.50
2023-04-21T22:09:27.431Z,8.25
2023-04-21T22:12:02.259Z,9.27
2023-04-21T22:14:31.908Z,9.50
2023-04-21T22:17:07.953Z,9.20
2023-04-21T22:19:37.098Z,9.43
2023-04-21T22:22:08.807Z,9.18
2023-04-21T22:24:38.615Z,9.48
2023-04-21T22:27:09.579Z,10.23
2023-04-21T22:29:43.265Z,9.70
2023-04-21T22:32:16.156Z,10.02
2023-04-21T22:34:46.660Z,10.40
2023-04-21T22:37:18.205Z,10.05
2023-04-21T22:39:48.827Z,9.27
2023-04-21T22:42:20.400Z,8.90
2023-04-21T22:44:49.998Z,10.52
2023-04-21T22:47:34.280Z,11.25
2023-04-21T22:50:07.245Z,9.82
2023-04-21T22:52:38.917Z,11.10
2023-04-21T22:55:10.838Z,10.18
2023-04-21T22:57:40.439Z,11.20
2023-04-21T23:00:16.643Z,10.45
2023-04-21T23:02:48.502Z,11.02
2023-04-21T23:05:19.723Z,11.63
2023-04-21T23:07:53.522Z,10.75
2023-04-21T23:10:26.426Z,11.50
2023-04-21T23:12:55.908Z,12.05
2023-04-21T23:15:29.774Z,10.93
2023-04-21T23:18:00.966Z,12.25
2023-04-21T23:20:31.555Z,11.18
2023-04-21T23:23:08.492Z,11.25
2023-04-21T23:25:38.425Z,11.00
2023-04-21T23:28:08.950Z,11.05
2023-04-21T23:30:41.158Z,11.38
2023-04-21T23:33:13.340Z,11.50
2023-04-21T23:35:45.087Z,11.23
2023-04-21T23:38:14.630Z,11.70
2023-04-21T23:40:43.894Z,11.32
2023-04-21T23:43:16.985Z,11.13
2023-04-21T23:45:47.333Z,11.80
2023-04-21T23:48:36.060Z,11.52
2023-04-21T23:51:05.546Z,12.05
2023-04-21T23:53:36.350Z,12.18
2023-04-21T23:56:05.047Z,12.45
2023-04-21T23:58:34.580Z,12.50
